createdAt,value
2022-10-31T00:02:17.192Z,13.10
2022-10-31T00:07:39.235Z,12.80
2022-10-31T00:13:01.337Z,12.00
2022-10-31T00:18:23.292Z,12.60
2022-10-31T00:23:44.923Z,12.90
2022-10-31T00:29:06.856Z,12.00
2022-10-31T00:34:29.087Z,12.70
2022-10-31T00:39:50.815Z,12.10
2022-10-31T00:45:14.244Z,12.40
2022-10-31T00:50:35.771Z,11.50
2022-10-31T00:55:57.805Z,11.50
2022-10-31T01:01:19.885Z,11.50
2022-10-31T01:06:42.262Z,11.00
2022-10-31T01:12:04.593Z,10.60
2022-10-31T01:17:26.522Z,11.00
2022-10-31T01:22:48.451Z,10.60
2022-10-31T01:28:10.792Z,10.50
2022-10-31T01:33:32.711Z,10.20
2022-10-31T01:38:57.457Z,10.60
2022-10-31T01:44:19.482Z,11.90
2022-10-31T01:49:50.343Z,13.50
2022-10-31T01:55:21.994Z,12.50
2022-10-31T02:00:47.417Z,14.00
2022-10-31T02:06:15.190Z,14.10
2022-10-31T02:11:38.229Z,12.40
2022-10-31T02:16:59.758Z,12.80
2022-10-31T02:22:24.627Z,11.90
2022-10-31T02:27:55.016Z,11.20
2022-10-31T02:33:27.609Z,12.50
2022-10-31T02:39:02.111Z,11.80
2022-10-31T02:44:34.164Z,12.50
2022-10-31T02:50:07.230Z,11.00
2022-10-31T02:55:29.188Z,10.80
2022-10-31T03:01:08.589Z,10.30
2022-10-31T03:06:36.801Z,10.80
2022-10-31T03:12:02.545Z,10.50
2022-10-31T03:17:34.809Z,11.40
2022-10-31T03:22:57.245Z,11.50
2022-10-31T03:28:23.335Z,12.60
2022-10-31T03:33:46.518Z,12.70
2022-10-31T03:39:10.962Z,12.70
2022-10-31T03:44:34.314Z,12.00
2022-10-31T03:49:57.429Z,12.90
2022-10-31T03:55:32.327Z,12.50
2022-10-31T04:00:56.320Z,13.10
2022-10-31T04:06:19.471Z,13.70
2022-10-31T04:11:51.635Z,12.40
2022-10-31T04:17:29.221Z,14.10
2022-10-31T04:22:51.150Z,15.30
2022-10-31T04:28:12.625Z,14.90
2022-10-31T04:33:35.108Z,16.10
2022-10-31T04:38:57.643Z,17.10
2022-10-31T04:44:33.016Z,17.10
2022-10-31T04:49:55.848Z,15.00
2022-10-31T04:55:18.082Z,15.40
2022-10-31T05:01:09.264Z,15.50
2022-10-31T05:06:31.542Z,12.20
2022-10-31T05:11:53.471Z,14.00
2022-10-31T05:17:38.080Z,15.30
2022-10-31T05:23:29.013Z,14.70
2022-10-31T05:28:50.789Z,14.80
2022-10-31T05:34:12.471Z,16.30
2022-10-31T05:39:40.318Z,17.40
2022-10-31T05:45:07.450Z,16.60
2022-10-31T05:50:50.469Z,16.20
2022-10-31T05:56:12.098Z,16.00
2022-10-31T06:01:33.563Z,16.10
2022-10-31T06:06:59.769Z,13.30
2022-10-31T06:12:22.005Z,12.40
2022-10-31T06:18:10.030Z,12.10
2022-10-31T06:23:40.925Z,10.80
2022-10-31T06:29:21.878Z,11.30
2022-10-31T06:34:53.139Z,12.30
2022-10-31T06:40:15.070Z,12.10
2022-10-31T06:46:03.893Z,12.30
2022-10-31T06:51:41.477Z,12.30
2022-10-31T06:57:03.308Z,10.60
2022-10-31T07:02:24.995Z,12.10
2022-10-31T07:07:47.666Z,13.60
2022-10-31T07:13:15.219Z,15.90
2022-10-31T07:18:41.564Z,14.80
2022-10-31T07:24:03.489Z,14.90
2022-10-31T07:29:44.987Z,14.00
2022-10-31T07:35:09.020Z,13.00
2022-10-31T07:40:52.143Z,12.90
2022-10-31T07:46:14.060Z,15.80
2022-10-31T07:52:01.690Z,15.50
2022-10-31T07:58:00.002Z,14.30
2022-10-31T08:03:22.968Z,14.50
2022-10-31T08:09:03.964Z,14.80
2022-10-31T08:14:26.505Z,12.50
2022-10-31T08:19:48.326Z,12.70
2022-10-31T08:25:11.660Z,13.90
2022-10-31T08:30:36.693Z,12.90
2022-10-31T08:36:19.054Z,13.60
2022-10-31T08:41:43.593Z,13.10
2022-10-31T08:47:07.328Z,14.10
2022-10-31T08:52:58.877Z,13.30
2022-10-31T08:58:14.048Z,14.60
2022-10-31T09:03:41.071Z,13.50
2022-10-31T09:09:03.895Z,13.00
2022-10-31T09:14:25.999Z,14.90
2022-10-31T09:20:13.145Z,12.20
2022-10-31T09:25:36.387Z,13.20
2022-10-31T09:36:47.141Z,13.20
2022-10-31T09:42:37.493Z,13.10
2022-10-31T09:48:22.368Z,13.40
2022-10-31T09:54:12.738Z,12.60
2022-10-31T09:59:36.442Z,17.70
2022-10-31T10:05:01.015Z,13.30
2022-10-31T10:10:31.215Z,11.80
2022-10-31T10:16:38.713Z,11.10
2022-10-31T10:22:32.865Z,10.90
2022-10-31T10:28:04.239Z,10.40
2022-10-31T10:33:42.236Z,9.60
2022-10-31T10:39:14.673Z,9.30
2022-10-31T10:44:59.484Z,9.60
2022-10-31T10:50:26.645Z,9.60
2022-10-31T10:55:58.195Z,7.80
2022-10-31T11:01:20.141Z,8.00
2022-10-31T11:06:41.652Z,7.80
2022-10-31T11:12:15.683Z,9.60
2022-10-31T11:17:40.966Z,7.90
2022-10-31T11:23:06.669Z,8.00
2022-10-31T11:28:30.645Z,8.60
2022-10-31T11:34:04.732Z,8.10
2022-10-31T11:39:26.749Z,7.90
2022-10-31T11:44:48.575Z,7.90
2022-10-31T11:50:21.542Z,8.10
2022-10-31T11:55:43.111Z,8.30
2022-10-31T12:01:05.353Z,8.20
2022-10-31T12:06:34.548Z,6.90
2022-10-31T12:12:21.881Z,7.40
2022-10-31T12:17:55.631Z,6.10
2022-10-31T12:23:27.514Z,6.80
2022-10-31T12:29:20.555Z,7.30
2022-10-31T12:34:55.724Z,6.10
2022-10-31T12:40:34.931Z,6.20
2022-10-31T12:46:01.734Z,6.20
2022-10-31T12:51:47.040Z,7.10
2022-10-31T12:57:19.858Z,6.10
2022-10-31T13:03:04.113Z,6.20
2022-10-31T13:08:32.010Z,5.40
2022-10-31T13:14:16.255Z,5.90
2022-10-31T13:19:44.358Z,6.20
2022-10-31T13:30:34.039Z,5.90
2022-10-31T13:35:59.715Z,5.40
2022-10-31T13:41:34.966Z,6.20
2022-10-31T13:46:58.591Z,5.00
2022-10-31T13:52:26.614Z,6.10
2022-10-31T13:57:48.047Z,5.10
2022-10-31T14:03:30.922Z,6.90
2022-10-31T14:09:02.361Z,5.30
2022-10-31T14:14:31.288Z,4.70
2022-10-31T14:20:19.714Z,5.20
2022-10-31T14:25:41.540Z,5.50
2022-10-31T14:31:03.168Z,6.20
2022-10-31T14:36:32.849Z,5.90
2022-10-31T14:42:13.568Z,6.50
2022-10-31T14:47:51.687Z,7.90
2022-10-31T14:53:22.265Z,10.90
2022-10-31T14:58:48.311Z,9.70
2022-10-31T15:04:25.071Z,14.70
2022-10-31T15:09:57.069Z,11.70
2022-10-31T15:15:26.979Z,9.70
2022-10-31T15:20:48.641Z,11.00
2022-10-31T15:26:19.502Z,11.40
2022-10-31T15:32:00.200Z,12.50
2022-10-31T15:37:25.438Z,14.90
2022-10-31T15:42:56.962Z,14.90
2022-10-31T15:48:23.121Z,25.20
2022-10-31T15:53:49.693Z,20.40
2022-10-31T15:59:21.656Z,35.50
2022-10-31T16:04:55.632Z,38.10
2022-10-31T16:10:26.417Z,36.50
2022-10-31T16:16:08.933Z,41.60
2022-10-31T16:21:38.545Z,35.00
2022-10-31T16:27:08.503Z,38.10
2022-10-31T16:32:53.915Z,32.20
2022-10-31T16:38:15.569Z,33.30
2022-10-31T16:43:37.479Z,35.60
2022-10-31T16:48:59.314Z,46.50
2022-10-31T16:54:21.227Z,32.50
2022-10-31T16:59:42.860Z,48.70
2022-10-31T17:05:04.943Z,35.80
2022-10-31T17:10:27.324Z,39.90
2022-10-31T17:15:52.188Z,35.50
2022-10-31T17:21:20.859Z,33.70
2022-10-31T17:26:43.678Z,40.80
2022-10-31T17:32:05.591Z,35.60
2022-10-31T17:37:27.475Z,33.50
2022-10-31T17:42:51.547Z,99.30
2022-10-31T17:48:13.535Z,35.00
2022-10-31T17:53:36.009Z,42.90
2022-10-31T17:58:59.928Z,38.80
2022-10-31T18:04:21.818Z,57.70
2022-10-31T18:09:43.540Z,65.70
2022-10-31T18:15:05.834Z,56.30
2022-10-31T18:20:27.411Z,69.90
2022-10-31T18:25:49.048Z,40.90
2022-10-31T18:31:11.155Z,45.90
2022-10-31T18:36:33.740Z,48.40
2022-10-31T18:41:55.336Z,44.30
2022-10-31T18:47:19.310Z,43.50
2022-10-31T18:52:42.446Z,79.10
2022-10-31T18:58:04.388Z,62.20
2022-10-31T19:03:27.574Z,97.10
2022-10-31T19:08:49.546Z,120.70
2022-10-31T19:14:13.696Z,75.70
2022-10-31T19:19:35.374Z,81.80
2022-10-31T19:24:57.277Z,70.50
2022-10-31T19:30:19.792Z,77.40
2022-10-31T19:35:41.709Z,65.70
2022-10-31T19:41:07.144Z,58.90
2022-10-31T19:52:11.267Z,41.50
2022-10-31T19:58:01.274Z,50.80
2022-10-31T20:03:19.827Z,51.00
2022-10-31T20:14:06.930Z,76.50
2022-10-31T20:19:29.217Z,88.20
2022-10-31T20:24:51.351Z,63.40
2022-10-31T20:30:14.474Z,65.00
2022-10-31T20:35:38.336Z,77.50
2022-10-31T20:41:02.648Z,65.70
2022-10-31T20:46:26.285Z,64.70
2022-10-31T20:51:48.418Z,57.60
2022-10-31T20:57:10.565Z,54.70
2022-10-31T21:02:32.641Z,68.70
2022-10-31T21:07:54.946Z,73.50
2022-10-31T21:13:16.972Z,70.40
2022-10-31T21:18:40.638Z,70.80
2022-10-31T21:24:06.153Z,80.90
2022-10-31T21:29:28.348Z,89.20
2022-10-31T21:34:50.717Z,82.50
2022-10-31T21:40:13.008Z,80.20
2022-10-31T21:45:35.737Z,72.60
2022-10-31T21:50:57.710Z,75.10
2022-10-31T21:56:19.919Z,73.80
2022-10-31T22:01:42.119Z,82.80
2022-10-31T22:07:04.566Z,80.50
2022-10-31T22:12:26.497Z,78.10
2022-10-31T22:17:49.120Z,70.10
2022-10-31T22:23:10.648Z,73.10
2022-10-31T22:28:33.882Z,68.10
2022-10-31T22:33:56.311Z,69.60
2022-10-31T22:39:18.245Z,68.40
2022-10-31T22:44:39.869Z,65.80
2022-10-31T22:50:01.898Z,67.60
2022-10-31T22:55:23.728Z,67.20
2022-10-31T23:00:45.464Z,69.80
2022-10-31T23:06:08.412Z,64.70
2022-10-31T23:11:34.050Z,66.10
2022-10-31T23:16:56.874Z,66.40
2022-10-31T23:22:18.292Z,60.60
2022-10-31T23:27:39.923Z,63.00
2022-10-31T23:33:01.912Z,60.70
2022-10-31T23:38:23.949Z,59.60
2022-10-31T23:43:45.808Z,57.30
2022-10-31T23:49:07.336Z,59.00
2022-10-31T23:54:32.496Z,56.10
2022-10-31T23:59:54.507Z,57.50
